createdAt,value
2023-03-16T00:02:05.624Z,3.04
2023-03-16T00:04:37.448Z,3.10
2023-03-16T00:07:09.174Z,3.10
2023-03-16T00:09:41.229Z,3.11
2023-03-16T00:12:18.578Z,3.17
2023-03-16T00:14:46.945Z,3.19
2023-03-16T00:17:19.243Z,3.19
2023-03-16T00:19:55.345Z,3.04
2023-03-16T00:22:27.610Z,3.15
2023-03-16T00:24:54.888Z,3.18
2023-03-16T00:27:23.266Z,3.18
2023-03-16T00:29:56.020Z,3.16
2023-03-16T00:32:28.745Z,3.20
2023-03-16T00:34:56.205Z,3.14
2023-03-16T00:37:24.613Z,3.16
2023-03-16T00:39:52.370Z,3.22
2023-03-16T00:42:19.817Z,3.25
2023-03-16T00:44:46.940Z,3.24
2023-03-16T00:47:14.592Z,3.28
2023-03-16T00:49:43.240Z,3.33
2023-03-16T00:52:15.486Z,3.28
2023-03-16T00:54:44.367Z,3.30
2023-03-16T00:57:14.053Z,3.37
2023-03-16T00:59:42.310Z,3.42
2023-03-16T01:02:10.101Z,3.39
2023-03-16T01:04:37.661Z,3.37
2023-03-16T01:07:04.979Z,3.40
2023-03-16T01:09:37.018Z,3.40
2023-03-16T01:12:06.306Z,3.44
2023-03-16T01:14:35.356Z,3.45
2023-03-16T01:17:04.059Z,3.51
2023-03-16T01:19:34.218Z,3.57
2023-03-16T01:22:02.131Z,3.53
2023-03-16T01:24:29.141Z,3.57
2023-03-16T01:26:56.037Z,3.59
2023-03-16T01:29:22.908Z,3.68
2023-03-16T01:31:52.626Z,3.67
2023-03-16T01:34:19.746Z,3.63
2023-03-16T01:36:51.176Z,3.64
2023-03-16T01:39:26.026Z,3.72
2023-03-16T01:41:53.429Z,3.72
2023-03-16T01:44:24.350Z,3.77
2023-03-16T01:46:51.646Z,3.80
2023-03-16T01:49:25.505Z,3.82
2023-03-16T01:51:57.837Z,3.87
2023-03-16T01:54:30.781Z,3.80
2023-03-16T01:57:14.069Z,3.78
2023-03-16T01:59:53.525Z,3.88
2023-03-16T02:02:23.416Z,3.86
2023-03-16T02:04:56.109Z,3.82
2023-03-16T02:07:25.102Z,3.82
2023-03-16T02:09:56.184Z,3.88
2023-03-16T02:12:23.808Z,3.91
2023-03-16T02:14:54.107Z,3.91
2023-03-16T02:17:24.145Z,3.96
2023-03-16T02:19:54.043Z,4.00
2023-03-16T02:22:25.196Z,4.03
2023-03-16T02:24:55.359Z,4.00
2023-03-16T02:27:40.008Z,4.13
2023-03-16T02:30:18.408Z,4.09
2023-03-16T02:33:07.361Z,4.07
2023-03-16T02:35:34.414Z,4.05
2023-03-16T02:38:02.500Z,4.13
2023-03-16T02:40:34.839Z,4.16
2023-03-16T02:43:09.713Z,4.19
2023-03-16T02:45:52.824Z,4.19
2023-03-16T02:48:32.366Z,4.26
2023-03-16T02:50:59.367Z,4.24
2023-03-16T02:53:27.753Z,4.29
2023-03-16T02:55:56.479Z,4.30
2023-03-16T02:58:23.582Z,4.26
2023-03-16T03:00:50.424Z,4.32
2023-03-16T03:03:18.517Z,4.34
2023-03-16T03:05:45.473Z,4.35
2023-03-16T03:08:12.564Z,4.40
2023-03-16T03:10:39.796Z,4.47
2023-03-16T03:13:09.527Z,4.37
2023-03-16T03:15:36.521Z,4.45
2023-03-16T03:18:09.727Z,4.32
2023-03-16T03:20:36.577Z,4.41
2023-03-16T03:23:03.789Z,4.46
2023-03-16T03:25:30.754Z,4.43
2023-03-16T03:27:57.607Z,4.48
2023-03-16T03:30:25.716Z,4.50
2023-03-16T03:32:52.823Z,4.48
2023-03-16T03:35:21.778Z,4.42
2023-03-16T03:37:48.584Z,4.51
2023-03-16T03:40:20.159Z,4.50
2023-03-16T03:42:51.551Z,4.60
2023-03-16T03:45:18.564Z,4.50
2023-03-16T03:47:45.393Z,4.56
2023-03-16T03:50:18.010Z,4.48
2023-03-16T03:52:58.113Z,4.58
2023-03-16T03:55:26.794Z,4.65
2023-03-16T03:57:53.536Z,4.63
2023-03-16T04:00:21.040Z,4.63
2023-03-16T04:02:48.685Z,4.54
2023-03-16T04:05:27.625Z,4.54
2023-03-16T04:07:57.634Z,4.64
2023-03-16T04:10:26.405Z,4.64
2023-03-16T04:12:53.896Z,4.60
2023-03-16T04:15:23.091Z,4.66
2023-03-16T04:18:02.148Z,4.60
2023-03-16T04:20:30.003Z,4.62
2023-03-16T04:22:58.826Z,4.79
2023-03-16T04:25:27.436Z,4.63
2023-03-16T04:27:54.741Z,4.56
2023-03-16T04:30:24.519Z,4.79
2023-03-16T04:32:56.344Z,4.67
2023-03-16T04:35:23.886Z,4.71
2023-03-16T04:37:56.689Z,4.71
2023-03-16T04:40:31.204Z,4.74
2023-03-16T04:43:07.991Z,4.70
2023-03-16T04:45:35.442Z,4.75
2023-03-16T04:48:02.413Z,4.77
2023-03-16T04:50:29.988Z,4.73
2023-03-16T04:52:57.112Z,4.86
2023-03-16T04:55:24.784Z,4.80
2023-03-16T04:57:52.706Z,4.84
2023-03-16T05:00:21.590Z,4.80
2023-03-16T05:03:04.441Z,4.80
2023-03-16T05:05:31.743Z,4.77
2023-03-16T05:07:58.718Z,4.88
2023-03-16T05:10:28.289Z,4.84
2023-03-16T05:12:56.235Z,4.91
2023-03-16T05:15:23.119Z,4.67
2023-03-16T05:18:00.399Z,4.86
2023-03-16T05:20:27.763Z,4.90
2023-03-16T05:22:58.956Z,4.86
2023-03-16T05:25:29.373Z,4.88
2023-03-16T05:27:58.555Z,4.82
2023-03-16T05:30:55.293Z,4.89
2023-03-16T05:33:26.393Z,4.82
2023-03-16T05:36:03.113Z,4.83
2023-03-16T05:38:32.082Z,4.83
2023-03-16T05:41:04.572Z,4.86
2023-03-16T05:43:53.214Z,4.90
2023-03-16T05:46:22.251Z,4.88
2023-03-16T05:48:50.737Z,4.89
2023-03-16T05:51:19.657Z,4.88
2023-03-16T05:53:48.782Z,4.84
2023-03-16T05:56:26.770Z,4.93
2023-03-16T05:58:55.356Z,4.87
2023-03-16T06:01:23.796Z,4.91
2023-03-16T06:03:54.786Z,4.78
2023-03-16T06:06:25.648Z,4.83
2023-03-16T06:09:05.040Z,4.90
2023-03-16T06:11:33.081Z,4.90
2023-03-16T06:14:01.306Z,4.82
2023-03-16T06:16:28.438Z,4.72
2023-03-16T06:18:59.184Z,4.78
2023-03-16T06:21:27.437Z,4.90
2023-03-16T06:24:00.797Z,4.94
2023-03-16T06:26:27.688Z,5.01
2023-03-16T06:28:55.105Z,4.96
2023-03-16T06:31:22.543Z,4.93
2023-03-16T06:33:50.418Z,4.92
2023-03-16T06:36:17.682Z,4.95
2023-03-16T06:38:48.494Z,4.91
2023-03-16T06:41:23.343Z,4.87
2023-03-16T06:43:50.163Z,4.85
2023-03-16T06:46:17.217Z,4.83
2023-03-16T06:48:44.467Z,4.70
2023-03-16T06:51:11.354Z,4.75
2023-03-16T06:53:38.222Z,4.73
2023-03-16T06:56:06.069Z,4.73
2023-03-16T06:58:37.348Z,4.82
2023-03-16T07:01:04.905Z,4.78
2023-03-16T07:03:31.984Z,4.81
2023-03-16T07:06:06.213Z,4.85
2023-03-16T07:08:33.032Z,4.82
2023-03-16T07:10:59.942Z,4.84
2023-03-16T07:13:26.842Z,4.78
2023-03-16T07:15:54.783Z,4.80
2023-03-16T07:18:26.062Z,4.91
2023-03-16T07:20:54.730Z,4.87
2023-03-16T07:23:24.945Z,4.96
2023-03-16T07:25:53.771Z,4.94
2023-03-16T07:28:20.853Z,5.02
2023-03-16T07:31:02.857Z,4.95
2023-03-16T07:33:33.835Z,5.03
2023-03-16T07:36:04.756Z,4.92
2023-03-16T07:38:33.590Z,4.93
2023-03-16T07:41:01.145Z,5.05
2023-03-16T07:43:29.414Z,5.02
2023-03-16T07:45:56.432Z,5.06
2023-03-16T07:48:24.808Z,5.01
2023-03-16T07:50:56.187Z,5.01
2023-03-16T07:53:24.433Z,5.06
2023-03-16T07:56:01.444Z,5.12
2023-03-16T07:58:31.415Z,5.14
2023-03-16T08:00:59.831Z,5.10
2023-03-16T08:03:26.972Z,5.10
2023-03-16T08:05:55.780Z,5.09
2023-03-16T08:08:22.938Z,5.14
2023-03-16T08:10:52.755Z,5.22
2023-03-16T08:13:23.237Z,5.27
2023-03-16T08:15:58.524Z,5.13
2023-03-16T08:18:37.060Z,5.09
2023-03-16T08:21:04.199Z,5.08
2023-03-16T08:23:33.733Z,5.21
2023-03-16T08:26:01.348Z,5.16
2023-03-16T08:28:28.473Z,5.17
2023-03-16T08:30:58.672Z,5.25
2023-03-16T08:33:38.772Z,5.26
2023-03-16T08:36:08.622Z,5.42
2023-03-16T08:38:35.980Z,5.39
2023-03-16T08:41:07.715Z,5.42
2023-03-16T08:43:37.282Z,5.43
2023-03-16T08:46:05.655Z,5.50
2023-03-16T08:48:43.899Z,5.51
2023-03-16T08:51:11.688Z,5.57
2023-03-16T08:53:38.610Z,5.57
2023-03-16T08:56:08.075Z,5.64
2023-03-16T08:58:35.824Z,5.80
2023-03-16T09:01:05.659Z,5.73
2023-03-16T09:03:33.602Z,5.98
2023-03-16T09:06:05.708Z,5.92
2023-03-16T09:08:33.110Z,5.87
2023-03-16T09:11:01.762Z,5.94
2023-03-16T09:13:28.930Z,5.98
2023-03-16T09:15:56.682Z,6.03
2023-03-16T09:18:26.281Z,6.06
2023-03-16T09:21:00.867Z,6.10
2023-03-16T09:23:30.395Z,6.16
2023-03-16T09:26:01.626Z,6.11
2023-03-16T09:28:29.435Z,6.21
2023-03-16T09:30:57.307Z,6.15
2023-03-16T09:33:25.589Z,6.14
2023-03-16T09:35:52.831Z,6.09
2023-03-16T09:38:20.001Z,6.27
2023-03-16T09:40:49.027Z,6.23
2023-03-16T09:43:25.714Z,6.37
2023-03-16T09:46:10.766Z,6.44
2023-03-16T09:48:38.806Z,6.45
2023-03-16T09:51:08.960Z,6.56
2023-03-16T09:53:38.359Z,6.47
2023-03-16T09:56:09.783Z,6.54
2023-03-16T09:58:37.042Z,6.63
2023-03-16T10:01:35.896Z,6.71
2023-03-16T10:04:15.391Z,6.75
2023-03-16T10:07:16.274Z,6.63
2023-03-16T10:09:48.133Z,6.68
2023-03-16T10:12:16.059Z,6.73
2023-03-16T10:15:08.731Z,6.75
2023-03-16T10:17:50.852Z,6.70
2023-03-16T10:20:20.948Z,6.74
2023-03-16T10:22:50.907Z,6.77
2023-03-16T10:25:39.779Z,6.76
2023-03-16T10:28:06.554Z,6.76
2023-03-16T10:30:38.758Z,6.66
2023-03-16T10:33:26.782Z,6.57
2023-03-16T10:36:05.762Z,6.63
2023-03-16T10:39:16.418Z,6.62
2023-03-16T10:41:46.045Z,6.63
2023-03-16T10:44:17.488Z,6.50
2023-03-16T10:46:48.737Z,6.46
2023-03-16T10:49:21.849Z,6.57
2023-03-16T10:51:49.293Z,6.59
2023-03-16T10:54:27.581Z,6.49
2023-03-16T10:56:55.460Z,6.51
2023-03-16T10:59:25.340Z,6.49
2023-03-16T11:02:20.802Z,6.47
2023-03-16T11:04:48.044Z,6.43
2023-03-16T11:07:19.156Z,6.43
2023-03-16T11:09:47.361Z,6.55
2023-03-16T11:12:28.967Z,6.47
2023-03-16T11:15:02.784Z,6.50
2023-03-16T11:17:38.586Z,6.51
2023-03-16T11:20:15.000Z,6.56
2023-03-16T11:22:45.651Z,6.62
2023-03-16T11:25:29.667Z,6.54
2023-03-16T11:28:35.663Z,6.55
2023-03-16T11:31:16.855Z,6.52
2023-03-16T11:33:43.791Z,6.68
2023-03-16T11:36:28.025Z,6.62
2023-03-16T11:39:27.587Z,6.65
2023-03-16T11:41:59.222Z,6.51
2023-03-16T11:44:51.733Z,6.59
2023-03-16T11:47:29.793Z,6.62
2023-03-16T11:50:14.777Z,6.69
2023-03-16T11:52:41.550Z,6.56
2023-03-16T11:55:19.875Z,6.67
2023-03-16T11:58:25.852Z,6.64
2023-03-16T12:01:01.960Z,6.66
2023-03-16T12:03:53.984Z,6.78
2023-03-16T12:06:48.752Z,6.70
2023-03-16T12:09:24.637Z,6.68
2023-03-16T12:12:00.458Z,6.63
2023-03-16T12:14:32.476Z,6.76
2023-03-16T12:17:18.443Z,6.77
2023-03-16T12:19:50.535Z,6.72
2023-03-16T12:22:21.747Z,6.78
2023-03-16T12:24:48.996Z,6.80
2023-03-16T12:27:18.968Z,6.88
2023-03-16T12:30:09.622Z,6.88
2023-03-16T12:32:43.862Z,6.85
2023-03-16T12:35:13.654Z,6.80
2023-03-16T12:38:08.113Z,6.87
2023-03-16T12:40:55.135Z,6.97
2023-03-16T12:43:43.709Z,7.11
2023-03-16T12:46:18.722Z,7.09
2023-03-16T12:48:52.782Z,7.18
2023-03-16T12:51:19.617Z,7.42
2023-03-16T12:53:54.798Z,7.42
2023-03-16T12:56:44.364Z,7.53
2023-03-16T12:59:21.083Z,7.65
2023-03-16T13:01:53.911Z,7.68
2023-03-16T13:04:29.738Z,7.74
2023-03-16T13:07:23.903Z,7.92
2023-03-16T13:10:01.886Z,7.98
2023-03-16T13:12:37.062Z,8.07
2023-03-16T13:15:24.408Z,8.20
2023-03-16T13:18:23.443Z,8.54
2023-03-16T13:21:01.786Z,9.14
2023-03-16T13:23:47.471Z,9.27
2023-03-16T13:26:16.784Z,9.45
2023-03-16T13:28:47.150Z,9.37
2023-03-16T13:31:28.274Z,9.34
2023-03-16T13:33:56.872Z,9.33
2023-03-16T13:36:27.179Z,9.36
2023-03-16T13:39:05.235Z,9.36
2023-03-16T13:41:32.098Z,9.40
2023-03-16T13:43:58.948Z,9.66
2023-03-16T13:46:30.539Z,10.47
2023-03-16T13:49:00.930Z,11.38
2023-03-16T13:51:31.009Z,12.22
2023-03-16T13:53:57.884Z,12.93
2023-03-16T13:56:27.133Z,13.11
2023-03-16T13:58:54.445Z,13.08
2023-03-16T14:01:27.032Z,13.07
2023-03-16T14:03:56.399Z,13.83
2023-03-16T14:06:26.714Z,14.60
2023-03-16T14:08:58.394Z,14.02
2023-03-16T14:11:28.601Z,14.64
2023-03-16T14:14:00.611Z,14.95
2023-03-16T14:16:29.860Z,15.02
2023-03-16T14:19:03.598Z,15.30
2023-03-16T14:21:34.331Z,15.13
2023-03-16T14:24:04.743Z,15.56
2023-03-16T14:26:42.682Z,14.29
2023-03-16T14:29:25.050Z,13.99
2023-03-16T14:31:51.985Z,15.35
2023-03-16T14:34:39.720Z,15.83
2023-03-16T14:37:14.916Z,16.58
2023-03-16T14:39:42.394Z,16.34
2023-03-16T14:42:29.567Z,15.60
2023-03-16T14:44:57.445Z,14.48
2023-03-16T14:47:32.153Z,14.25
2023-03-16T14:50:07.542Z,13.53
2023-03-16T14:52:34.901Z,12.98
2023-03-16T14:55:09.868Z,12.34
2023-03-16T14:57:36.761Z,12.16
2023-03-16T15:00:05.619Z,11.93
2023-03-16T15:02:33.388Z,11.76
2023-03-16T15:05:01.375Z,11.85
2023-03-16T15:07:36.804Z,11.81
2023-03-16T15:10:10.821Z,11.92
2023-03-16T15:12:38.100Z,12.06
2023-03-16T15:15:18.945Z,12.42
2023-03-16T15:17:46.647Z,13.57
2023-03-16T15:20:15.646Z,13.32
2023-03-16T15:22:43.982Z,13.98
2023-03-16T15:25:20.862Z,15.36
2023-03-16T15:27:48.142Z,15.82
2023-03-16T15:30:29.182Z,16.07
2023-03-16T15:32:56.692Z,16.95
2023-03-16T15:35:23.845Z,17.22
2023-03-16T15:37:50.656Z,17.45
2023-03-16T15:40:21.691Z,17.79
2023-03-16T15:42:48.966Z,18.18
2023-03-16T15:45:18.770Z,18.57
2023-03-16T15:47:45.706Z,18.99
2023-03-16T15:50:16.240Z,18.89
2023-03-16T15:52:47.150Z,18.58
2023-03-16T15:55:22.730Z,18.74
2023-03-16T15:57:54.577Z,18.80
2023-03-16T16:00:33.492Z,18.94
2023-03-16T16:03:02.050Z,18.48
2023-03-16T16:05:30.725Z,19.11
2023-03-16T16:07:58.399Z,19.62
2023-03-16T16:10:25.807Z,19.80
2023-03-16T16:12:54.679Z,19.52
2023-03-16T16:15:33.992Z,19.22
2023-03-16T16:18:20.402Z,19.20
2023-03-16T16:20:48.485Z,19.18
2023-03-16T16:23:15.262Z,18.19
2023-03-16T16:25:42.569Z,16.99
2023-03-16T16:28:19.582Z,16.52
2023-03-16T16:30:47.574Z,15.17
2023-03-16T16:33:28.291Z,14.84
2023-03-16T16:35:57.343Z,14.60
2023-03-16T16:38:24.751Z,14.45
2023-03-16T16:40:53.496Z,14.13
2023-03-16T16:43:37.240Z,13.80
2023-03-16T16:46:07.678Z,13.74
2023-03-16T16:48:38.249Z,13.49
2023-03-16T16:51:09.085Z,13.43
2023-03-16T16:53:35.980Z,13.25
2023-03-16T16:56:03.054Z,12.79
2023-03-16T16:58:30.078Z,12.66
2023-03-16T17:00:58.165Z,12.43
2023-03-16T17:03:27.144Z,12.34
2023-03-16T17:05:56.123Z,12.19
2023-03-16T17:08:23.706Z,12.18
2023-03-16T17:10:52.092Z,11.92
2023-03-16T17:13:29.933Z,11.75
2023-03-16T17:15:56.753Z,11.79
2023-03-16T17:18:24.433Z,11.46
2023-03-16T17:20:52.406Z,11.53
2023-03-16T17:23:34.642Z,11.45
2023-03-16T17:26:24.868Z,11.40
2023-03-16T17:28:55.610Z,11.22
2023-03-16T17:31:24.636Z,11.19
2023-03-16T17:33:52.690Z,11.14
2023-03-16T17:36:20.575Z,10.94
2023-03-16T17:38:48.447Z,10.97
2023-03-16T17:41:30.604Z,10.92
2023-03-16T17:44:05.459Z,10.81
2023-03-16T17:46:32.588Z,10.82
2023-03-16T17:49:01.975Z,10.78
2023-03-16T17:51:28.981Z,10.75
2023-03-16T17:53:56.819Z,10.61
2023-03-16T17:56:25.805Z,10.63
2023-03-16T17:58:57.201Z,10.66
2023-03-16T18:01:30.300Z,10.52
2023-03-16T18:03:58.044Z,10.41
2023-03-16T18:06:26.370Z,10.39
2023-03-16T18:08:53.652Z,10.34
2023-03-16T18:11:21.961Z,10.22
2023-03-16T18:13:50.337Z,10.32
2023-03-16T18:16:23.296Z,10.36
2023-03-16T18:18:51.973Z,10.31
2023-03-16T18:21:21.808Z,10.33
2023-03-16T18:23:49.432Z,10.33
2023-03-16T18:26:16.471Z,10.37
2023-03-16T18:28:44.683Z,10.25
2023-03-16T18:31:21.559Z,10.35
2023-03-16T18:33:53.871Z,10.30
2023-03-16T18:36:24.461Z,10.30
2023-03-16T18:38:53.408Z,10.15
2023-03-16T18:41:27.621Z,10.06
2023-03-16T18:43:57.261Z,10.17
2023-03-16T18:46:30.270Z,10.15
2023-03-16T18:48:59.330Z,10.02
2023-03-16T18:51:27.013Z,9.97
2023-03-16T18:53:54.236Z,9.90
2023-03-16T18:56:27.241Z,9.92
2023-03-16T18:58:56.282Z,9.83
2023-03-16T19:01:31.847Z,9.87
2023-03-16T19:04:00.186Z,9.82
2023-03-16T19:06:30.513Z,9.58
2023-03-16T19:09:13.354Z,9.45
2023-03-16T19:11:43.470Z,9.45
2023-03-16T19:14:16.590Z,9.39
2023-03-16T19:16:44.124Z,9.39
2023-03-16T19:19:11.526Z,9.28
2023-03-16T19:21:38.979Z,9.10
2023-03-16T19:24:06.334Z,9.26
2023-03-16T19:26:34.607Z,9.21
2023-03-16T19:29:01.728Z,9.24
2023-03-16T19:31:29.657Z,9.36
2023-03-16T19:33:57.016Z,9.25
2023-03-16T19:36:30.513Z,9.26
2023-03-16T19:38:58.486Z,9.24
2023-03-16T19:41:33.791Z,9.16
2023-03-16T19:44:20.628Z,9.22
2023-03-16T19:46:47.547Z,9.22
2023-03-16T19:49:32.617Z,9.23
2023-03-16T19:51:59.490Z,9.19
2023-03-16T19:54:35.213Z,9.16
2023-03-16T19:57:11.591Z,9.26
2023-03-16T19:59:38.492Z,9.22
2023-03-16T20:02:22.772Z,9.28
2023-03-16T20:04:50.079Z,9.19
2023-03-16T20:07:17.381Z,9.23
2023-03-16T20:09:45.273Z,9.26
2023-03-16T20:12:32.596Z,9.40
2023-03-16T20:15:02.299Z,9.42
2023-03-16T20:17:30.242Z,9.29
2023-03-16T20:19:58.036Z,9.52
2023-03-16T20:22:27.875Z,9.53
2023-03-16T20:24:55.017Z,9.61
2023-03-16T20:27:23.397Z,9.64
2023-03-16T20:29:50.216Z,9.61
2023-03-16T20:32:24.309Z,9.73
2023-03-16T20:34:51.518Z,9.74
2023-03-16T20:37:25.652Z,9.77
2023-03-16T20:39:54.115Z,9.73
2023-03-16T20:42:27.432Z,9.74
2023-03-16T20:44:54.533Z,9.69
2023-03-16T20:47:22.904Z,9.76
2023-03-16T20:49:50.898Z,9.69
2023-03-16T20:52:20.650Z,9.73
2023-03-16T20:54:48.583Z,9.60
2023-03-16T20:57:17.748Z,9.72
2023-03-16T20:59:46.968Z,9.67
2023-03-16T21:02:35.168Z,9.67
2023-03-16T21:05:05.026Z,9.63
2023-03-16T21:07:33.057Z,9.62
2023-03-16T21:09:59.854Z,9.61
2023-03-16T21:12:29.661Z,9.63
2023-03-16T21:14:56.974Z,9.69
2023-03-16T21:17:36.809Z,9.58
2023-03-16T21:20:14.942Z,9.56
2023-03-16T21:22:41.868Z,9.52
2023-03-16T21:25:10.096Z,9.56
2023-03-16T21:27:37.782Z,9.58
2023-03-16T21:30:36.290Z,9.69
2023-03-16T21:33:03.198Z,9.67
2023-03-16T21:35:34.580Z,9.69
2023-03-16T21:38:07.542Z,9.58
2023-03-16T21:40:34.343Z,9.57
2023-03-16T21:43:01.124Z,9.71
2023-03-16T21:45:28.144Z,9.74
2023-03-16T21:47:55.916Z,9.90
2023-03-16T21:50:24.789Z,9.81
2023-03-16T21:52:51.810Z,9.86
2023-03-16T21:55:25.891Z,9.79
2023-03-16T21:57:53.865Z,9.79
2023-03-16T22:00:24.181Z,9.81
2023-03-16T22:02:53.041Z,9.80
2023-03-16T22:05:41.625Z,9.85
2023-03-16T22:08:23.504Z,9.77
2023-03-16T22:10:50.928Z,9.77
2023-03-16T22:13:19.274Z,9.71
2023-03-16T22:15:48.544Z,9.68
2023-03-16T22:18:29.271Z,9.67
2023-03-16T22:20:56.993Z,9.64
2023-03-16T22:23:32.079Z,9.50
2023-03-16T22:25:59.023Z,9.52
2023-03-16T22:28:26.597Z,9.47
2023-03-16T22:30:54.676Z,9.46
2023-03-16T22:33:28.349Z,9.47
2023-03-16T22:36:05.395Z,9.44
2023-03-16T22:38:32.484Z,9.50
2023-03-16T22:40:59.763Z,9.51
2023-03-16T22:43:32.297Z,9.45
2023-03-16T22:46:00.139Z,9.58
2023-03-16T22:48:28.776Z,9.56
2023-03-16T22:50:58.307Z,9.53
2023-03-16T22:53:37.192Z,9.54
2023-03-16T22:56:05.107Z,9.57
2023-03-16T22:58:37.828Z,9.53
2023-03-16T23:01:19.073Z,9.54
2023-03-16T23:03:47.484Z,9.50
2023-03-16T23:06:20.563Z,9.57
2023-03-16T23:08:48.068Z,9.49
2023-03-16T23:11:28.511Z,9.45
2023-03-16T23:13:56.295Z,9.45
2023-03-16T23:16:26.128Z,9.49
2023-03-16T23:18:53.549Z,9.47
2023-03-16T23:21:22.985Z,9.47
2023-03-16T23:24:02.685Z,9.43
2023-03-16T23:26:30.656Z,9.48
2023-03-16T23:28:58.020Z,9.54
2023-03-16T23:31:27.343Z,9.56
2023-03-16T23:33:54.262Z,9.43
2023-03-16T23:36:24.824Z,9.50
2023-03-16T23:38:52.167Z,9.46
2023-03-16T23:41:24.170Z,9.35
2023-03-16T23:43:52.871Z,9.46
2023-03-16T23:46:21.785Z,9.40
2023-03-16T23:48:49.604Z,9.42
2023-03-16T23:51:28.987Z,9.43
2023-03-16T23:53:56.518Z,9.37
2023-03-16T23:56:23.634Z,9.45
2023-03-16T23:58:51.137Z,9.42
